createdAt,value
2019-04-04T00:01:00.999Z,82.30
2019-04-04T00:03:33.066Z,82.60
2019-04-04T00:06:05.115Z,82.70
2019-04-04T00:08:37.942Z,82.80
2019-04-04T00:11:09.942Z,83.20
2019-04-04T00:13:42.618Z,82.70
2019-04-04T00:16:15.951Z,82.50
2019-04-04T00:18:49.537Z,82.30
2019-04-04T00:21:21.672Z,82.20
2019-04-04T00:23:53.765Z,82.30
2019-04-04T00:26:26.365Z,82.00
2019-04-04T00:29:01.272Z,81.70
2019-04-04T00:31:35.515Z,81.60
2019-04-04T00:34:08.300Z,81.40
2019-04-04T00:36:41.290Z,81.30
2019-04-04T00:39:13.487Z,81.40
2019-04-04T00:41:45.916Z,80.70
2019-04-04T00:44:18.944Z,80.40
2019-04-04T00:46:51.069Z,80.30
2019-04-04T00:49:23.220Z,80.30
2019-04-04T00:51:55.768Z,80.10
2019-04-04T00:54:27.826Z,79.90
2019-04-04T00:56:59.965Z,79.70
2019-04-04T00:59:32.372Z,79.70
2019-04-04T01:02:04.489Z,79.60
2019-04-04T01:04:36.860Z,79.20
2019-04-04T01:07:08.918Z,79.10
2019-04-04T01:09:41.051Z,78.60
2019-04-04T01:12:13.086Z,78.40
2019-04-04T01:14:45.274Z,78.20
2019-04-04T01:17:18.478Z,77.90
2019-04-04T01:19:50.721Z,77.50
2019-04-04T01:22:23.103Z,77.00
2019-04-04T01:24:56.470Z,76.60
2019-04-04T01:27:28.608Z,76.30
2019-04-04T01:30:00.746Z,76.00
2019-04-04T01:32:32.893Z,75.70
2019-04-04T01:35:06.601Z,75.50
2019-04-04T01:37:39.798Z,75.10
2019-04-04T01:40:32.906Z,75.80
2019-04-04T01:43:04.624Z,75.10
2019-04-04T01:45:36.817Z,74.40
2019-04-04T01:48:09.374Z,73.80
2019-04-04T01:50:41.826Z,73.40
2019-04-04T01:53:14.060Z,72.90
2019-04-04T01:55:45.964Z,71.20
2019-04-04T01:58:17.875Z,70.70
2019-04-04T02:00:50.110Z,70.90
2019-04-04T02:03:23.326Z,71.30
2019-04-04T02:05:57.853Z,71.00
2019-04-04T02:08:31.304Z,70.80
2019-04-04T02:11:05.236Z,69.90
2019-04-04T02:13:55.822Z,69.40
2019-04-04T02:16:28.373Z,69.30
2019-04-04T02:19:00.313Z,69.10
2019-04-04T02:21:32.963Z,68.40
2019-04-04T02:24:05.440Z,68.10
2019-04-04T02:26:37.783Z,69.00
2019-04-04T02:29:11.718Z,68.90
2019-04-04T02:31:45.270Z,67.70
2019-04-04T02:34:17.532Z,67.40
2019-04-04T02:36:50.210Z,67.20
2019-04-04T02:39:24.846Z,67.20
2019-04-04T02:41:57.004Z,66.80
2019-04-04T02:44:49.397Z,66.80
2019-04-04T02:47:21.730Z,67.10
2019-04-04T02:49:53.755Z,66.30
2019-04-04T02:52:26.534Z,67.00
2019-04-04T02:54:58.959Z,66.40
2019-04-04T02:57:31.001Z,66.00
2019-04-04T03:00:03.277Z,66.40
2019-04-04T03:02:36.936Z,66.30
2019-04-04T03:05:10.170Z,66.40
2019-04-04T03:07:42.183Z,66.10
2019-04-04T03:10:33.774Z,66.40
2019-04-04T03:13:18.730Z,65.70
2019-04-04T03:16:11.110Z,65.30
2019-04-04T03:18:45.465Z,65.70
2019-04-04T03:21:21.948Z,65.10
2019-04-04T03:23:52.489Z,65.00
2019-04-04T03:26:24.981Z,64.40
2019-04-04T03:28:57.436Z,64.10
2019-04-04T03:31:37.307Z,63.80
2019-04-04T03:34:19.190Z,63.30
2019-04-04T03:37:12.467Z,63.50
2019-04-04T03:39:44.856Z,62.80
2019-04-04T03:42:17.351Z,61.70
2019-04-04T03:44:52.831Z,60.80
2019-04-04T03:47:23.265Z,61.10
2019-04-04T03:49:57.736Z,60.80
2019-04-04T03:52:29.414Z,59.10
2019-04-04T03:55:04.630Z,58.30
2019-04-04T03:57:37.226Z,58.90
2019-04-04T04:00:11.848Z,60.00
2019-04-04T04:02:44.270Z,58.00
2019-04-04T04:05:19.694Z,57.40
2019-04-04T04:07:58.449Z,57.30
2019-04-04T04:10:33.509Z,57.50
2019-04-04T04:13:04.548Z,56.00
2019-04-04T04:15:36.532Z,55.80
2019-04-04T04:18:08.993Z,56.20
2019-04-04T04:20:41.338Z,56.60
2019-04-04T04:23:13.490Z,56.80
2019-04-04T04:25:47.324Z,56.80
2019-04-04T04:28:20.753Z,56.30
2019-04-04T04:30:53.901Z,56.90
2019-04-04T04:33:28.969Z,56.70
2019-04-04T04:35:59.722Z,56.20
2019-04-04T04:38:33.372Z,55.90
2019-04-04T04:41:07.516Z,54.90
2019-04-04T04:43:39.561Z,55.40
2019-04-04T04:46:12.142Z,55.50
2019-04-04T04:48:44.849Z,55.20
2019-04-04T04:51:17.400Z,55.10
2019-04-04T04:53:50.585Z,54.60
2019-04-04T04:56:42.799Z,52.50
2019-04-04T04:59:15.930Z,53.40
2019-04-04T05:01:50.238Z,53.60
2019-04-04T05:04:21.883Z,54.20
2019-04-04T05:06:54.127Z,53.40
2019-04-04T05:09:26.295Z,52.40
2019-04-04T05:11:59.639Z,52.50
2019-04-04T05:14:31.672Z,52.10
2019-04-04T05:17:03.737Z,52.00
2019-04-04T05:19:36.059Z,52.50
2019-04-04T05:22:09.266Z,53.20
2019-04-04T05:24:43.120Z,53.30
2019-04-04T05:27:37.245Z,53.10
2019-04-04T05:30:10.838Z,53.40
2019-04-04T05:32:42.698Z,52.80
2019-04-04T05:35:15.371Z,52.40
2019-04-04T05:37:50.615Z,52.70
2019-04-04T05:40:23.550Z,51.90
2019-04-04T05:42:58.124Z,51.20
2019-04-04T05:45:30.186Z,52.20
2019-04-04T05:48:02.468Z,50.30
2019-04-04T05:50:34.995Z,50.30
2019-04-04T05:53:06.915Z,50.30
2019-04-04T05:55:39.809Z,49.60
2019-04-04T05:58:12.922Z,50.20
2019-04-04T06:00:46.360Z,50.50
2019-04-04T06:03:37.453Z,49.70
2019-04-04T06:06:10.683Z,49.30
2019-04-04T06:08:43.423Z,49.20
2019-04-04T06:11:15.916Z,49.60
2019-04-04T06:13:47.855Z,49.10
2019-04-04T06:16:19.930Z,48.20
2019-04-04T06:18:53.173Z,48.10
2019-04-04T06:21:25.220Z,47.50
2019-04-04T06:23:57.434Z,46.80
2019-04-04T06:26:29.884Z,47.30
2019-04-04T06:29:05.464Z,48.20
2019-04-04T06:31:36.196Z,47.90
2019-04-04T06:34:10.417Z,48.60
2019-04-04T06:37:01.217Z,48.60
2019-04-04T06:39:33.373Z,47.40
2019-04-04T06:42:05.666Z,47.00
2019-04-04T06:44:38.622Z,46.70
2019-04-04T06:47:10.810Z,46.10
2019-04-04T06:49:45.554Z,46.10
2019-04-04T06:52:18.454Z,46.40
2019-04-04T06:54:50.507Z,45.80
2019-04-04T06:57:22.707Z,46.00
2019-04-04T06:59:55.236Z,46.00
2019-04-04T07:02:28.836Z,46.00
2019-04-04T07:05:01.522Z,45.90
2019-04-04T07:07:33.784Z,45.30
2019-04-04T07:10:07.572Z,44.80
2019-04-04T07:12:40.095Z,45.60
2019-04-04T07:15:16.007Z,44.60
2019-04-04T07:17:47.600Z,44.70
2019-04-04T07:20:38.610Z,45.50
2019-04-04T07:23:14.178Z,44.20
2019-04-04T07:25:45.100Z,43.70
2019-04-04T07:28:18.988Z,43.50
2019-04-04T07:30:54.470Z,44.70
2019-04-04T07:33:25.518Z,44.50
2019-04-04T07:35:58.674Z,45.10
2019-04-04T07:38:30.847Z,44.30
2019-04-04T07:41:02.792Z,45.30
2019-04-04T07:43:35.051Z,44.50
2019-04-04T07:46:16.368Z,44.40
2019-04-04T07:48:42.400Z,44.20
2019-04-04T07:51:14.530Z,44.80
2019-04-04T07:53:46.935Z,45.10
2019-04-04T07:56:19.724Z,45.40
2019-04-04T07:58:52.115Z,46.00
2019-04-04T08:01:24.586Z,45.50
2019-04-04T08:03:56.461Z,45.10
2019-04-04T08:06:47.558Z,46.30
2019-04-04T08:09:21.115Z,45.20
2019-04-04T08:11:53.926Z,45.10
2019-04-04T08:14:45.946Z,45.10
2019-04-04T08:17:19.078Z,45.10
2019-04-04T08:19:59.468Z,44.70
2019-04-04T08:22:25.677Z,44.80
2019-04-04T08:24:57.905Z,44.50
2019-04-04T08:27:30.399Z,44.90
2019-04-04T08:30:02.846Z,43.80
2019-04-04T08:32:37.078Z,43.60
2019-04-04T08:35:10.821Z,43.40
2019-04-04T08:37:42.695Z,44.10
2019-04-04T08:40:15.496Z,43.90
2019-04-04T08:42:51.552Z,44.00
2019-04-04T08:45:23.724Z,43.00
2019-04-04T08:47:57.278Z,43.20
2019-04-04T08:50:29.638Z,43.00
2019-04-04T08:53:10.842Z,43.20
2019-04-04T08:55:43.021Z,43.50
2019-04-04T08:58:15.055Z,43.10
2019-04-04T09:00:47.255Z,43.70
2019-04-04T09:03:19.661Z,41.90
2019-04-04T09:05:51.917Z,42.30
2019-04-04T09:08:23.707Z,43.10
2019-04-04T09:10:56.146Z,43.30
2019-04-04T09:13:28.155Z,43.60
2019-04-04T09:16:01.091Z,43.30
2019-04-04T09:18:32.950Z,43.60
2019-04-04T09:21:05.118Z,42.90
2019-04-04T09:23:37.633Z,43.20
2019-04-04T09:26:09.865Z,43.00
2019-04-04T09:28:42.335Z,42.40
2019-04-04T09:31:14.709Z,41.90
2019-04-04T09:33:47.223Z,42.10
2019-04-04T09:36:38.522Z,42.00
2019-04-04T09:39:11.085Z,42.70
2019-04-04T09:41:43.274Z,42.80
2019-04-04T09:44:15.708Z,43.20
2019-04-04T09:46:47.878Z,43.20
2019-04-04T09:49:21.035Z,43.30
2019-04-04T09:51:53.062Z,43.60
2019-04-04T09:54:25.360Z,43.40
2019-04-04T09:56:57.377Z,43.20
2019-04-04T09:59:29.539Z,43.30
2019-04-04T10:02:01.789Z,43.10
2019-04-04T10:04:34.127Z,42.50
2019-04-04T10:07:06.666Z,42.70
2019-04-04T10:09:38.806Z,43.20
2019-04-04T10:12:11.398Z,43.50
2019-04-04T10:14:43.717Z,43.70
2019-04-04T10:17:15.784Z,44.00
2019-04-04T10:19:48.412Z,43.90
2019-04-04T10:22:20.671Z,43.80
2019-04-04T10:24:52.641Z,44.00
2019-04-04T10:27:24.840Z,44.10
2019-04-04T10:29:56.851Z,44.40
2019-04-04T10:32:29.497Z,44.70
2019-04-04T10:35:02.904Z,45.00
2019-04-04T10:37:35.687Z,45.10
2019-04-04T10:40:10.072Z,45.60
2019-04-04T10:42:42.313Z,45.90
2019-04-04T10:45:15.278Z,46.00
2019-04-04T10:47:47.498Z,45.50
2019-04-04T10:50:20.405Z,45.80
2019-04-04T10:52:53.020Z,45.90
2019-04-04T10:55:25.191Z,46.10
2019-04-04T10:57:57.648Z,46.10
2019-04-04T11:00:30.137Z,45.70
2019-04-04T11:03:02.084Z,45.70
2019-04-04T11:05:35.446Z,46.00
2019-04-04T11:08:08.119Z,45.70
2019-04-04T11:10:40.460Z,45.90
2019-04-04T11:13:12.336Z,46.20
2019-04-04T11:15:45.589Z,47.10
2019-04-04T11:18:17.526Z,47.20
2019-04-04T11:20:49.935Z,47.20
2019-04-04T11:23:41.846Z,47.70
2019-04-04T11:26:14.927Z,48.40
2019-04-04T11:28:47.541Z,48.70
2019-04-04T11:31:20.224Z,48.70
2019-04-04T11:33:52.488Z,49.00
2019-04-04T11:36:24.527Z,49.80
2019-04-04T11:39:04.064Z,49.70
2019-04-04T11:41:38.425Z,49.50
2019-04-04T11:44:10.781Z,49.70
2019-04-04T11:46:42.852Z,50.20
2019-04-04T11:49:15.443Z,50.20
2019-04-04T11:51:48.393Z,50.30
2019-04-04T11:54:20.928Z,50.80
2019-04-04T11:56:52.953Z,50.90
2019-04-04T11:59:25.487Z,51.40
2019-04-04T12:01:58.503Z,51.90
2019-04-04T12:04:30.869Z,52.20
2019-04-04T12:07:03.000Z,52.00
2019-04-04T12:09:35.648Z,52.00
2019-04-04T12:12:11.673Z,52.30
2019-04-04T12:14:44.811Z,52.60
2019-04-04T12:17:17.047Z,53.10
2019-04-04T12:19:49.933Z,53.30
2019-04-04T12:22:22.303Z,53.50
2019-04-04T12:24:58.453Z,53.60
2019-04-04T12:27:30.743Z,53.90
2019-04-04T12:30:03.428Z,54.20
2019-04-04T12:32:36.231Z,54.20
2019-04-04T12:35:09.013Z,54.40
2019-04-04T12:38:00.248Z,54.90
2019-04-04T12:40:33.544Z,54.80
2019-04-04T12:43:06.531Z,55.20
2019-04-04T12:45:38.924Z,55.40
2019-04-04T12:48:11.797Z,55.30
2019-04-04T12:50:44.162Z,55.60
2019-04-04T12:53:17.000Z,55.30
2019-04-04T12:55:49.102Z,55.10
2019-04-04T12:58:21.223Z,55.30
2019-04-04T13:01:03.154Z,55.30
2019-04-04T13:03:35.381Z,55.80
2019-04-04T13:06:07.909Z,56.10
2019-04-04T13:08:39.841Z,56.20
2019-04-04T13:11:12.118Z,56.70
2019-04-04T13:13:44.568Z,57.70
2019-04-04T13:16:26.787Z,57.10
2019-04-04T13:18:59.381Z,57.50
2019-04-04T13:21:31.048Z,58.10
2019-04-04T13:24:03.243Z,58.40
2019-04-04T13:26:35.395Z,58.20
2019-04-04T13:29:08.700Z,58.20
2019-04-04T13:31:41.077Z,58.40
2019-04-04T13:34:14.494Z,58.40
2019-04-04T13:36:47.071Z,58.50
2019-04-04T13:39:19.905Z,58.80
2019-04-04T13:41:51.921Z,59.00
2019-04-04T13:44:24.126Z,58.80
2019-04-04T13:46:56.705Z,58.80
2019-04-04T13:49:28.596Z,58.80
2019-04-04T13:52:00.727Z,58.90
2019-04-04T13:54:34.327Z,59.00
2019-04-04T13:57:06.366Z,59.10
2019-04-04T13:59:38.474Z,59.10
2019-04-04T14:02:10.672Z,59.20
2019-04-04T14:04:42.520Z,59.60
2019-04-04T14:07:14.545Z,59.90
2019-04-04T14:09:46.895Z,59.60
2019-04-04T14:12:36.834Z,59.80
2019-04-04T14:15:11.834Z,59.90
2019-04-04T14:17:44.262Z,60.50
2019-04-04T14:20:25.802Z,60.50
2019-04-04T14:22:57.604Z,60.80
2019-04-04T14:25:30.054Z,61.20
2019-04-04T14:28:11.546Z,61.10
2019-04-04T14:30:43.487Z,60.80
2019-04-04T14:33:15.376Z,61.20
2019-04-04T14:35:47.721Z,61.30
2019-04-04T14:38:19.723Z,61.40
2019-04-04T14:41:12.006Z,61.20
2019-04-04T14:43:44.358Z,62.10
2019-04-04T14:46:16.514Z,62.20
2019-04-04T14:48:49.306Z,62.00
2019-04-04T14:51:24.344Z,62.10
2019-04-04T14:53:59.632Z,62.30
2019-04-04T14:56:32.463Z,61.90
2019-04-04T14:59:04.987Z,62.40
2019-04-04T15:01:39.513Z,62.00
2019-04-04T15:04:11.609Z,63.00
2019-04-04T15:06:43.615Z,62.80
2019-04-04T15:09:15.659Z,61.60
2019-04-04T15:11:47.642Z,61.90
2019-04-04T15:14:19.667Z,61.20
2019-04-04T15:16:51.508Z,61.00
2019-04-04T15:19:24.369Z,60.70
2019-04-04T15:21:57.441Z,60.50
2019-04-04T15:24:29.282Z,60.90
2019-04-04T15:27:01.570Z,60.70
2019-04-04T15:29:36.563Z,61.40
2019-04-04T15:32:08.938Z,61.30
2019-04-04T15:34:41.194Z,61.50
2019-04-04T15:37:13.086Z,61.10
2019-04-04T15:39:45.873Z,60.80
2019-04-04T15:42:18.170Z,60.50
2019-04-04T15:44:49.908Z,61.40
2019-04-04T15:47:22.235Z,61.10
2019-04-04T15:49:54.259Z,61.10
2019-04-04T15:52:27.228Z,60.70
2019-04-04T15:55:00.492Z,61.10
2019-04-04T15:57:33.498Z,61.20
2019-04-04T16:00:07.008Z,61.30
2019-04-04T16:02:39.366Z,61.30
2019-04-04T16:05:13.789Z,61.30
2019-04-04T16:07:45.944Z,61.90
2019-04-04T16:10:18.730Z,62.40
2019-04-04T16:12:51.990Z,61.50
2019-04-04T16:15:23.997Z,61.70
2019-04-04T16:17:56.482Z,61.10
2019-04-04T16:20:29.003Z,60.90
2019-04-04T16:23:01.133Z,61.40
2019-04-04T16:25:33.637Z,61.10
2019-04-04T16:28:05.888Z,61.80
2019-04-04T16:30:37.807Z,61.60
2019-04-04T16:33:12.761Z,61.90
2019-04-04T16:35:47.598Z,61.30
2019-04-04T16:38:22.703Z,61.20
2019-04-04T16:40:56.164Z,61.20
2019-04-04T16:43:28.796Z,62.10
2019-04-04T16:46:00.874Z,61.90
2019-04-04T16:48:32.979Z,62.10
2019-04-04T16:51:05.744Z,62.30
2019-04-04T16:53:37.969Z,62.40
2019-04-04T16:56:10.100Z,62.80
2019-04-04T16:58:49.733Z,62.80
2019-04-04T17:01:22.210Z,63.20
2019-04-04T17:04:01.414Z,63.80
2019-04-04T17:06:28.343Z,63.80
2019-04-04T17:09:04.625Z,64.20
2019-04-04T17:11:36.827Z,64.20
2019-04-04T17:14:09.088Z,64.40
2019-04-04T17:16:41.198Z,64.20
2019-04-04T17:19:13.589Z,63.90
2019-04-04T17:21:51.257Z,64.20
2019-04-04T17:24:23.850Z,64.50
2019-04-04T17:26:57.712Z,65.10
2019-04-04T17:29:30.336Z,65.40
2019-04-04T17:32:02.579Z,66.00
2019-04-04T17:34:35.277Z,66.10
2019-04-04T17:37:07.688Z,65.70
2019-04-04T17:39:39.930Z,65.80
2019-04-04T17:42:12.170Z,66.00
2019-04-04T17:44:45.470Z,66.00
2019-04-04T17:47:18.657Z,66.50
2019-04-04T17:49:51.468Z,66.70
2019-04-04T17:52:23.622Z,67.10
2019-04-04T17:54:55.884Z,67.20
2019-04-04T17:57:29.478Z,67.50
2019-04-04T18:00:02.060Z,68.00
2019-04-04T18:02:34.422Z,67.30
2019-04-04T18:05:08.834Z,67.90
2019-04-04T18:07:40.996Z,69.00
2019-04-04T18:10:13.931Z,68.10
2019-04-04T18:12:46.489Z,67.70
2019-04-04T18:15:19.996Z,68.00
2019-04-04T18:17:52.051Z,67.60
2019-04-04T18:20:25.356Z,67.60
2019-04-04T18:22:57.382Z,67.60
2019-04-04T18:25:29.404Z,67.70
2019-04-04T18:28:01.967Z,67.60
2019-04-04T18:30:34.012Z,67.90
2019-04-04T18:33:06.204Z,67.70
2019-04-04T18:35:39.228Z,68.20
2019-04-04T18:38:11.621Z,68.40
2019-04-04T18:40:43.560Z,68.20
2019-04-04T18:43:16.083Z,68.30
2019-04-04T18:45:48.715Z,68.20
2019-04-04T18:48:20.759Z,68.60
2019-04-04T18:50:53.757Z,68.90
2019-04-04T18:53:25.631Z,69.10
2019-04-04T18:55:57.752Z,69.00
2019-04-04T18:58:30.506Z,69.10
2019-04-04T19:01:03.345Z,69.20
2019-04-04T19:03:37.239Z,69.60
2019-04-04T19:06:09.517Z,70.70
2019-04-04T19:08:42.105Z,69.80
2019-04-04T19:11:15.086Z,69.80
2019-04-04T19:13:47.131Z,70.60
2019-04-04T19:16:19.041Z,69.50
2019-04-04T19:18:51.699Z,69.80
2019-04-04T19:21:23.996Z,70.00
2019-04-04T19:23:56.009Z,70.30
2019-04-04T19:26:28.627Z,70.40
2019-04-04T19:29:00.856Z,70.50
2019-04-04T19:31:33.110Z,70.60
2019-04-04T19:34:05.090Z,70.40
2019-04-04T19:36:36.946Z,70.40
2019-04-04T19:39:12.440Z,70.30
2019-04-04T19:41:44.515Z,70.30
2019-04-04T19:44:16.456Z,70.10
2019-04-04T19:46:48.638Z,70.10
2019-04-04T19:49:20.545Z,70.60
2019-04-04T19:51:52.618Z,70.80
2019-04-04T19:54:25.143Z,70.90
2019-04-04T19:56:57.409Z,71.00
2019-04-04T19:59:29.588Z,72.00
2019-04-04T20:02:02.502Z,71.30
2019-04-04T20:04:34.668Z,71.60
2019-04-04T20:07:06.709Z,71.80
2019-04-04T20:09:38.984Z,71.80
2019-04-04T20:12:11.570Z,71.70
2019-04-04T20:14:43.522Z,71.60
2019-04-04T20:17:16.141Z,71.70
2019-04-04T20:19:48.586Z,71.60
2019-04-04T20:22:20.535Z,71.70
2019-04-04T20:24:52.725Z,71.30
2019-04-04T20:27:24.647Z,71.50
2019-04-04T20:29:57.044Z,71.70
2019-04-04T20:32:29.888Z,71.50
2019-04-04T20:35:02.315Z,71.70
2019-04-04T20:37:34.442Z,72.00
2019-04-04T20:40:08.548Z,71.30
2019-04-04T20:42:40.831Z,71.60
2019-04-04T20:45:13.009Z,71.90
2019-04-04T20:47:45.506Z,71.90
2019-04-04T20:50:18.285Z,71.80
2019-04-04T20:52:50.917Z,71.80
2019-04-04T20:55:23.084Z,72.80
2019-04-04T20:57:56.065Z,72.50
2019-04-04T21:00:28.310Z,72.70
2019-04-04T21:03:00.327Z,72.90
2019-04-04T21:05:33.551Z,73.10
2019-04-04T21:08:05.805Z,73.30
2019-04-04T21:10:37.953Z,73.60
2019-04-04T21:13:10.341Z,73.70
2019-04-04T21:15:42.488Z,74.00
2019-04-04T21:18:14.571Z,74.00
2019-04-04T21:20:46.799Z,74.40
2019-04-04T21:23:18.947Z,74.30
2019-04-04T21:25:51.439Z,74.20
2019-04-04T21:28:23.699Z,74.30
2019-04-04T21:30:55.958Z,75.30
2019-04-04T21:33:31.366Z,74.60
2019-04-04T21:36:03.703Z,74.70
2019-04-04T21:38:36.163Z,74.30
2019-04-04T21:41:08.805Z,74.40
2019-04-04T21:43:40.944Z,74.20
2019-04-04T21:46:14.736Z,74.00
2019-04-04T21:48:46.977Z,73.90
2019-04-04T21:51:19.181Z,73.80
2019-04-04T21:53:51.181Z,73.40
2019-04-04T21:56:25.040Z,74.40
2019-04-04T21:58:57.519Z,73.20
2019-04-04T22:01:29.824Z,73.50
2019-04-04T22:04:01.957Z,74.30
2019-04-04T22:06:34.874Z,73.40
2019-04-04T22:09:10.178Z,73.80
2019-04-04T22:11:42.307Z,73.60
2019-04-04T22:14:21.666Z,73.50
2019-04-04T22:16:48.442Z,73.80
2019-04-04T22:19:20.694Z,73.70
2019-04-04T22:21:52.680Z,74.40
2019-04-04T22:24:25.869Z,73.70
2019-04-04T22:26:58.027Z,74.10
2019-04-04T22:29:30.669Z,74.30
2019-04-04T22:32:02.717Z,73.90
2019-04-04T22:34:35.221Z,74.00
2019-04-04T22:37:07.493Z,74.10
2019-04-04T22:39:39.332Z,74.20
2019-04-04T22:42:13.163Z,74.00
2019-04-04T22:44:44.988Z,74.10
2019-04-04T22:47:17.230Z,74.00
2019-04-04T22:49:49.518Z,74.30
2019-04-04T22:52:22.189Z,74.40
2019-04-04T22:54:54.346Z,75.10
2019-04-04T22:57:27.154Z,74.90
2019-04-04T22:59:59.071Z,74.30
2019-04-04T23:02:31.196Z,74.40
2019-04-04T23:05:03.340Z,74.20
2019-04-04T23:07:35.535Z,74.20
2019-04-04T23:10:10.436Z,74.80
2019-04-04T23:12:42.922Z,74.50
2019-04-04T23:15:15.577Z,74.40
2019-04-04T23:17:47.913Z,74.20
2019-04-04T23:20:20.561Z,74.40
2019-04-04T23:22:53.386Z,74.50
2019-04-04T23:25:26.031Z,73.80
2019-04-04T23:27:58.187Z,74.40
2019-04-04T23:30:30.321Z,74.50
2019-04-04T23:33:02.299Z,74.60
2019-04-04T23:35:34.519Z,74.90
2019-04-04T23:38:06.529Z,74.70
2019-04-04T23:40:39.653Z,74.80
2019-04-04T23:43:11.899Z,74.70
2019-04-04T23:45:44.245Z,75.40
2019-04-04T23:48:16.352Z,74.90
2019-04-04T23:50:48.696Z,74.90
2019-04-04T23:53:33.246Z,75.20
2019-04-04T23:56:05.687Z,75.00
2019-04-04T23:58:37.743Z,74.90
